createdAt,value
2023-04-18T00:01:09.709Z,8.80
2023-04-18T00:03:38.984Z,8.90
2023-04-18T00:06:08.546Z,8.80
2023-04-18T00:08:36.507Z,8.80
2023-04-18T00:11:04.637Z,8.80
2023-04-18T00:13:32.638Z,8.80
2023-04-18T00:16:01.710Z,8.90
2023-04-18T00:18:29.708Z,8.90
2023-04-18T00:20:57.725Z,8.90
2023-04-18T00:23:28.205Z,8.80
2023-04-18T00:25:56.217Z,8.80
2023-04-18T00:28:24.165Z,8.70
2023-04-18T00:30:52.432Z,8.70
2023-04-18T00:33:20.543Z,8.70
2023-04-18T00:35:48.507Z,8.70
2023-04-18T00:38:16.468Z,8.60
2023-04-18T00:40:45.802Z,8.60
2023-04-18T00:43:14.951Z,8.50
2023-04-18T00:45:43.397Z,8.40
2023-04-18T00:48:12.365Z,8.30
2023-04-18T00:50:41.623Z,8.30
2023-04-18T00:53:11.112Z,8.30
2023-04-18T00:55:39.621Z,8.30
2023-04-18T00:58:10.117Z,8.20
2023-04-18T01:00:38.299Z,8.10
2023-04-18T01:03:06.730Z,8.10
2023-04-18T01:05:36.179Z,8.10
2023-04-18T01:08:05.499Z,8.20
2023-04-18T01:10:37.330Z,8.20
2023-04-18T01:13:17.099Z,8.20
2023-04-18T01:15:46.304Z,8.10
2023-04-18T01:18:16.901Z,8.10
2023-04-18T01:20:47.780Z,8.10
2023-04-18T01:23:16.930Z,8.10
2023-04-18T01:25:47.489Z,8.10
2023-04-18T01:28:16.368Z,8.10
2023-04-18T01:30:44.360Z,8.10
2023-04-18T01:33:12.437Z,8.10
2023-04-18T01:35:40.402Z,8.10
2023-04-18T01:38:08.390Z,8.00
2023-04-18T01:40:36.416Z,8.00
2023-04-18T01:43:05.775Z,8.00
2023-04-18T01:45:33.771Z,8.00
2023-04-18T01:48:03.012Z,7.90
2023-04-18T01:50:31.002Z,7.90
2023-04-18T01:52:58.960Z,7.90
2023-04-18T01:55:26.861Z,7.90
2023-04-18T01:57:55.971Z,7.80
2023-04-18T02:00:25.549Z,7.80
2023-04-18T02:02:53.611Z,7.80
2023-04-18T02:05:22.485Z,7.80
2023-04-18T02:07:50.648Z,7.70
2023-04-18T02:10:18.922Z,7.70
2023-04-18T02:12:47.017Z,7.70
2023-04-18T02:15:15.002Z,7.70
2023-04-18T02:17:44.408Z,7.60
2023-04-18T02:20:13.410Z,7.70
2023-04-18T02:22:41.363Z,7.70
2023-04-18T02:25:10.832Z,7.60
2023-04-18T02:27:38.811Z,7.60
2023-04-18T02:30:08.112Z,7.50
2023-04-18T02:32:36.115Z,7.50
2023-04-18T02:35:06.106Z,7.40
2023-04-18T02:37:34.080Z,7.50
2023-04-18T02:40:05.245Z,7.40
2023-04-18T02:42:33.341Z,7.40
2023-04-18T02:45:02.745Z,7.40
2023-04-18T02:47:37.521Z,7.30
2023-04-18T02:50:13.324Z,7.30
2023-04-18T02:52:41.332Z,7.30
2023-04-18T02:55:10.695Z,7.20
2023-04-18T02:57:41.978Z,7.20
2023-04-18T03:00:30.106Z,7.20
2023-04-18T03:03:27.228Z,7.20
2023-04-18T03:06:02.970Z,7.10
2023-04-18T03:08:33.131Z,7.10
2023-04-18T03:11:01.146Z,7.00
2023-04-18T03:13:31.300Z,7.10
2023-04-18T03:15:59.708Z,7.10
2023-04-18T03:18:28.874Z,7.10
2023-04-18T03:20:59.372Z,7.10
2023-04-18T03:23:30.417Z,7.00
2023-04-18T03:25:59.696Z,7.00
2023-04-18T03:28:30.485Z,6.90
2023-04-18T03:30:58.863Z,6.90
2023-04-18T03:33:28.711Z,6.90
2023-04-18T03:36:07.233Z,6.90
2023-04-18T03:38:37.848Z,6.90
2023-04-18T03:41:06.086Z,7.00
2023-04-18T03:43:37.312Z,7.00
2023-04-18T03:46:06.038Z,6.90
2023-04-18T03:48:37.053Z,6.90
2023-04-18T03:51:09.326Z,6.90
2023-04-18T03:53:39.905Z,6.80
2023-04-18T03:56:08.113Z,6.80
2023-04-18T03:58:48.845Z,6.80
2023-04-18T04:01:17.342Z,6.80
2023-04-18T04:03:45.499Z,6.80
2023-04-18T04:06:13.622Z,6.70
2023-04-18T04:08:43.041Z,6.70
2023-04-18T04:11:11.559Z,6.70
2023-04-18T04:13:40.374Z,6.80
2023-04-18T04:16:09.143Z,6.80
2023-04-18T04:18:38.134Z,6.70
2023-04-18T04:21:06.956Z,6.70
2023-04-18T04:23:49.979Z,6.70
2023-04-18T04:26:30.639Z,6.70
2023-04-18T04:29:11.093Z,6.70
2023-04-18T04:31:40.537Z,6.80
2023-04-18T04:34:08.846Z,6.70
2023-04-18T04:36:37.310Z,6.70
2023-04-18T04:39:08.706Z,6.60
2023-04-18T04:41:57.548Z,6.70
2023-04-18T04:44:29.390Z,6.70
2023-04-18T04:46:57.447Z,6.70
2023-04-18T04:49:31.291Z,6.70
2023-04-18T04:52:01.432Z,6.70
2023-04-18T04:54:31.596Z,6.80
2023-04-18T04:56:59.940Z,6.80
2023-04-18T04:59:27.868Z,6.80
2023-04-18T05:01:55.973Z,6.70
2023-04-18T05:04:24.365Z,6.80
2023-04-18T05:06:52.589Z,6.80
2023-04-18T05:09:20.755Z,6.90
2023-04-18T05:11:50.360Z,6.90
2023-04-18T05:14:20.514Z,6.80
2023-04-18T05:16:48.615Z,6.80
2023-04-18T05:19:16.597Z,6.70
2023-04-18T05:21:44.546Z,6.70
2023-04-18T05:24:13.069Z,6.70
2023-04-18T05:26:41.578Z,6.70
2023-04-18T05:29:10.897Z,6.70
2023-04-18T05:31:38.895Z,6.70
2023-04-18T05:34:06.875Z,6.80
2023-04-18T05:36:34.806Z,6.90
2023-04-18T05:39:02.755Z,6.90
2023-04-18T05:41:30.713Z,7.00
2023-04-18T05:44:05.385Z,7.00
2023-04-18T05:46:35.533Z,7.10
2023-04-18T05:49:03.719Z,7.20
2023-04-18T05:51:31.985Z,7.20
2023-04-18T05:53:59.978Z,7.20
2023-04-18T05:56:28.061Z,7.30
2023-04-18T05:58:56.024Z,7.30
2023-04-18T06:01:24.036Z,7.40
2023-04-18T06:03:53.611Z,7.30
2023-04-18T06:06:22.159Z,7.40
2023-04-18T06:08:50.172Z,7.40
2023-04-18T06:11:20.080Z,7.50
2023-04-18T06:13:48.220Z,7.50
2023-04-18T06:16:16.381Z,7.50
2023-04-18T06:18:44.454Z,7.50
2023-04-18T06:21:13.894Z,7.60
2023-04-18T06:23:41.867Z,7.60
2023-04-18T06:26:10.189Z,7.70
2023-04-18T06:28:38.094Z,7.80
2023-04-18T06:31:06.320Z,7.90
2023-04-18T06:33:35.484Z,8.00
2023-04-18T06:36:03.483Z,8.20
2023-04-18T06:38:33.503Z,8.30
2023-04-18T06:41:01.461Z,8.40
2023-04-18T06:43:29.450Z,8.50
2023-04-18T06:45:57.588Z,8.90
2023-04-18T06:48:25.601Z,9.00
2023-04-18T06:50:53.563Z,9.20
2023-04-18T06:53:21.550Z,9.60
2023-04-18T06:55:50.987Z,9.70
2023-04-18T06:58:19.037Z,9.70
2023-04-18T07:00:48.837Z,10.00
2023-04-18T07:03:16.960Z,10.10
2023-04-18T07:05:45.078Z,10.80
2023-04-18T07:08:13.013Z,11.80
2023-04-18T07:10:41.307Z,12.20
2023-04-18T07:13:10.603Z,12.30
2023-04-18T07:15:39.263Z,12.70
2023-04-18T07:18:07.349Z,13.30
2023-04-18T07:20:35.450Z,13.40
2023-04-18T07:23:03.424Z,12.70
2023-04-18T07:25:31.457Z,12.50
2023-04-18T07:27:59.692Z,12.80
2023-04-18T07:30:29.043Z,13.00
2023-04-18T07:32:57.094Z,13.00
2023-04-18T07:35:25.109Z,12.60
2023-04-18T07:37:54.212Z,13.10
2023-04-18T07:40:22.638Z,13.40
2023-04-18T07:42:50.676Z,13.00
2023-04-18T07:45:19.098Z,12.70
2023-04-18T07:47:48.454Z,12.00
2023-04-18T07:50:16.435Z,11.60
2023-04-18T07:52:47.609Z,11.70
2023-04-18T07:55:16.120Z,12.10
2023-04-18T07:57:45.955Z,12.90
2023-04-18T08:00:16.205Z,13.60
2023-04-18T08:02:44.335Z,13.30
2023-04-18T08:05:13.939Z,13.30
2023-04-18T08:07:42.063Z,13.00
2023-04-18T08:10:10.767Z,12.40
2023-04-18T08:12:38.901Z,11.80
2023-04-18T08:15:07.972Z,11.70
2023-04-18T08:17:36.008Z,11.90
2023-04-18T08:20:07.235Z,11.70
2023-04-18T08:22:44.069Z,11.60
2023-04-18T08:25:18.985Z,12.20
2023-04-18T08:27:46.982Z,11.90
2023-04-18T08:30:16.016Z,11.40
2023-04-18T08:32:44.144Z,11.00
2023-04-18T08:35:12.229Z,11.00
2023-04-18T08:37:41.695Z,11.10
2023-04-18T08:40:10.166Z,11.20
2023-04-18T08:42:38.744Z,11.00
2023-04-18T08:45:09.173Z,10.90
2023-04-18T08:47:37.271Z,10.90
2023-04-18T08:50:05.709Z,11.00
2023-04-18T08:52:36.010Z,11.10
2023-04-18T08:55:06.102Z,11.30
2023-04-18T08:57:34.876Z,11.40
2023-04-18T09:00:07.842Z,11.20
2023-04-18T09:02:42.072Z,11.20
2023-04-18T09:05:14.383Z,11.40
2023-04-18T09:07:42.962Z,11.20
2023-04-18T09:10:13.825Z,11.30
2023-04-18T09:12:50.009Z,11.00
2023-04-18T09:15:23.141Z,11.10
2023-04-18T09:17:53.366Z,11.30
2023-04-18T09:20:37.867Z,11.40
2023-04-18T09:23:10.400Z,11.60
2023-04-18T09:25:48.141Z,11.20
2023-04-18T09:28:28.686Z,10.90
2023-04-18T09:30:58.707Z,11.20
2023-04-18T09:33:29.224Z,11.10
2023-04-18T09:36:00.194Z,11.10
2023-04-18T09:38:40.133Z,11.00
2023-04-18T09:41:10.277Z,11.30
2023-04-18T09:43:38.352Z,11.50
2023-04-18T09:46:06.870Z,11.60
2023-04-18T09:48:35.022Z,11.80
2023-04-18T09:51:07.332Z,12.00
2023-04-18T09:53:39.386Z,11.80
2023-04-18T09:56:10.768Z,12.40
2023-04-18T09:58:42.356Z,12.30
2023-04-18T10:01:13.123Z,12.40
2023-04-18T10:03:45.808Z,12.60
2023-04-18T10:06:17.008Z,12.80
2023-04-18T10:08:46.010Z,12.80
2023-04-18T10:11:15.739Z,13.00
2023-04-18T10:13:45.715Z,13.90
2023-04-18T10:16:14.404Z,14.90
2023-04-18T10:18:43.952Z,15.50
2023-04-18T10:21:12.395Z,15.20
2023-04-18T10:23:41.465Z,15.10
2023-04-18T10:26:10.217Z,15.30
2023-04-18T10:28:54.212Z,15.60
2023-04-18T10:31:23.190Z,15.10
2023-04-18T10:34:18.270Z,15.10
2023-04-18T10:37:06.948Z,15.00
2023-04-18T10:39:49.461Z,13.80
2023-04-18T10:42:17.482Z,12.70
2023-04-18T10:45:19.325Z,12.00
2023-04-18T10:47:47.518Z,11.60
2023-04-18T10:50:16.259Z,11.70
2023-04-18T10:52:44.838Z,11.80
2023-04-18T10:55:18.287Z,12.10
2023-04-18T10:57:47.807Z,12.40
2023-04-18T11:00:20.775Z,13.00
2023-04-18T11:02:55.910Z,13.70
2023-04-18T11:05:25.865Z,13.50
2023-04-18T11:07:54.443Z,13.90
2023-04-18T11:10:25.373Z,13.50
2023-04-18T11:12:54.391Z,13.00
2023-04-18T11:15:25.444Z,13.10
2023-04-18T11:17:58.997Z,13.10
2023-04-18T11:20:27.391Z,13.60
2023-04-18T11:22:56.702Z,13.80
2023-04-18T11:25:26.857Z,13.60
2023-04-18T11:27:55.724Z,13.10
2023-04-18T11:30:25.314Z,12.90
2023-04-18T11:32:54.134Z,12.70
2023-04-18T11:35:22.305Z,12.60
2023-04-18T11:37:51.182Z,12.80
2023-04-18T11:40:19.206Z,12.80
2023-04-18T11:42:47.169Z,12.80
2023-04-18T11:45:16.225Z,12.80
2023-04-18T11:47:47.398Z,13.10
2023-04-18T11:50:15.422Z,13.90
2023-04-18T11:52:46.052Z,14.70
2023-04-18T11:55:17.444Z,15.30
2023-04-18T11:57:52.313Z,15.80
2023-04-18T12:00:33.108Z,16.00
2023-04-18T12:03:04.491Z,16.30
2023-04-18T12:05:34.114Z,16.90
2023-04-18T12:08:11.284Z,16.30
2023-04-18T12:10:47.349Z,16.90
2023-04-18T12:13:15.561Z,17.50
2023-04-18T12:15:44.988Z,17.60
2023-04-18T12:18:17.981Z,17.70
2023-04-18T12:20:49.885Z,17.80
2023-04-18T12:23:31.451Z,17.40
2023-04-18T12:26:07.013Z,17.10
2023-04-18T12:28:36.252Z,17.00
2023-04-18T12:31:05.839Z,16.60
2023-04-18T12:33:36.945Z,15.80
2023-04-18T12:36:06.084Z,15.40
2023-04-18T12:38:34.094Z,15.20
2023-04-18T12:41:02.254Z,15.50
2023-04-18T12:43:30.248Z,15.90
2023-04-18T12:45:59.409Z,16.40
2023-04-18T12:48:27.320Z,16.20
2023-04-18T12:50:56.660Z,15.40
2023-04-18T12:53:24.636Z,14.70
2023-04-18T12:55:53.008Z,14.40
2023-04-18T12:58:21.000Z,14.40
2023-04-18T13:00:49.109Z,14.00
2023-04-18T13:03:17.371Z,14.20
2023-04-18T13:05:45.511Z,14.00
2023-04-18T13:08:17.595Z,13.70
2023-04-18T13:10:46.435Z,13.60
2023-04-18T13:13:14.558Z,13.40
2023-04-18T13:15:42.685Z,13.60
2023-04-18T13:18:10.671Z,13.90
2023-04-18T13:20:38.702Z,14.50
2023-04-18T13:23:06.693Z,14.50
2023-04-18T13:25:36.086Z,14.50
2023-04-18T13:28:04.081Z,14.30
2023-04-18T13:30:32.297Z,14.90
2023-04-18T13:33:00.384Z,15.30
2023-04-18T13:35:28.432Z,15.70
2023-04-18T13:37:56.530Z,16.20
2023-04-18T13:40:25.152Z,16.20
2023-04-18T13:42:54.573Z,16.10
2023-04-18T13:45:22.594Z,15.80
2023-04-18T13:47:50.745Z,15.60
2023-04-18T13:50:19.002Z,15.40
2023-04-18T13:52:49.209Z,15.00
2023-04-18T13:55:17.837Z,14.80
2023-04-18T13:57:45.914Z,14.40
2023-04-18T14:00:16.959Z,14.30
2023-04-18T14:02:45.339Z,14.40
2023-04-18T14:05:13.418Z,15.00
2023-04-18T14:07:41.412Z,15.20
2023-04-18T14:10:10.028Z,15.40
2023-04-18T14:12:38.098Z,15.00
2023-04-18T14:15:07.187Z,14.90
2023-04-18T14:17:36.621Z,14.80
2023-04-18T14:20:05.863Z,14.70
2023-04-18T14:22:33.802Z,14.60
2023-04-18T14:25:01.757Z,14.30
2023-04-18T14:27:29.718Z,14.20
2023-04-18T14:29:57.681Z,14.20
2023-04-18T14:32:25.723Z,14.60
2023-04-18T14:34:55.119Z,14.70
2023-04-18T14:37:23.208Z,14.50
2023-04-18T14:39:51.283Z,14.30
2023-04-18T14:42:19.367Z,14.10
2023-04-18T14:44:47.312Z,14.20
2023-04-18T14:47:15.764Z,14.50
2023-04-18T14:49:43.733Z,14.70
2023-04-18T14:52:13.104Z,14.80
2023-04-18T14:54:41.115Z,14.80
2023-04-18T14:57:10.122Z,15.10
2023-04-18T14:59:38.124Z,15.10
2023-04-18T15:02:06.310Z,15.10
2023-04-18T15:04:34.640Z,15.20
2023-04-18T15:07:02.748Z,15.30
2023-04-18T15:09:36.331Z,15.40
2023-04-18T15:12:04.454Z,15.20
2023-04-18T15:14:33.025Z,14.80
2023-04-18T15:17:01.152Z,14.70
2023-04-18T15:19:30.612Z,14.40
2023-04-18T15:21:58.770Z,14.40
2023-04-18T15:24:26.850Z,14.40
2023-04-18T15:26:57.026Z,14.80
2023-04-18T15:29:25.046Z,14.90
2023-04-18T15:31:53.022Z,14.70
2023-04-18T15:34:21.032Z,14.80
2023-04-18T15:36:49.681Z,14.70
2023-04-18T15:39:21.687Z,14.70
2023-04-18T15:41:52.382Z,14.70
2023-04-18T15:44:21.747Z,14.50
2023-04-18T15:46:50.809Z,14.40
2023-04-18T15:49:18.774Z,14.40
2023-04-18T15:51:46.850Z,14.50
2023-04-18T15:54:15.114Z,14.50
2023-04-18T15:56:44.661Z,14.70
2023-04-18T15:59:13.120Z,14.90
2023-04-18T16:01:45.244Z,14.80
2023-04-18T16:04:14.350Z,14.70
2023-04-18T16:06:43.145Z,14.70
2023-04-18T16:09:12.158Z,14.70
2023-04-18T16:11:40.164Z,14.80
2023-04-18T16:14:08.104Z,14.80
2023-04-18T16:16:36.186Z,14.80
2023-04-18T16:19:05.627Z,14.60
2023-04-18T16:21:34.230Z,14.50
2023-04-18T16:24:02.460Z,14.40
2023-04-18T16:26:30.588Z,14.30
2023-04-18T16:28:58.550Z,14.20
2023-04-18T16:31:26.599Z,14.20
2023-04-18T16:33:54.638Z,14.20
2023-04-18T16:36:24.092Z,14.10
2023-04-18T16:38:52.086Z,14.10
2023-04-18T16:41:20.198Z,14.10
2023-04-18T16:43:48.209Z,14.20
2023-04-18T16:46:16.236Z,14.10
2023-04-18T16:48:45.187Z,14.10
2023-04-18T16:51:13.596Z,14.10
2023-04-18T16:53:44.700Z,14.10
2023-04-18T16:56:12.626Z,14.10
2023-04-18T16:58:40.608Z,14.10
2023-04-18T17:01:08.951Z,14.00
2023-04-18T17:03:37.369Z,14.00
2023-04-18T17:06:05.961Z,14.00
2023-04-18T17:08:34.122Z,13.90
2023-04-18T17:11:03.944Z,14.00
2023-04-18T17:13:32.365Z,13.90
2023-04-18T17:16:01.050Z,13.90
2023-04-18T17:18:29.343Z,13.80
2023-04-18T17:20:57.353Z,13.80
2023-04-18T17:23:25.312Z,13.70
2023-04-18T17:25:53.286Z,13.70
2023-04-18T17:28:23.592Z,13.70
2023-04-18T17:30:51.808Z,13.60
2023-04-18T17:33:19.822Z,13.60
2023-04-18T17:35:48.127Z,13.50
2023-04-18T17:38:16.095Z,13.40
2023-04-18T17:40:44.077Z,13.30
2023-04-18T17:43:12.739Z,13.30
2023-04-18T17:45:42.796Z,13.20
2023-04-18T17:48:12.016Z,13.20
2023-04-18T17:50:40.541Z,13.20
2023-04-18T17:53:08.586Z,13.20
2023-04-18T17:55:36.554Z,13.10
2023-04-18T17:58:05.155Z,13.10
2023-04-18T18:00:33.157Z,13.00
2023-04-18T18:03:03.745Z,13.00
2023-04-18T18:05:32.021Z,12.90
2023-04-18T18:08:01.113Z,12.90
2023-04-18T18:10:29.562Z,12.90
2023-04-18T18:12:57.664Z,12.80
2023-04-18T18:15:26.203Z,12.70
2023-04-18T18:17:54.989Z,12.60
2023-04-18T18:20:24.554Z,12.60
2023-04-18T18:22:53.990Z,12.50
2023-04-18T18:25:22.434Z,12.40
2023-04-18T18:27:51.375Z,12.30
2023-04-18T18:30:19.425Z,12.30
2023-04-18T18:32:47.450Z,12.20
2023-04-18T18:35:15.630Z,12.20
2023-04-18T18:37:44.948Z,12.20
2023-04-18T18:40:13.345Z,12.10
2023-04-18T18:42:42.451Z,12.00
2023-04-18T18:45:11.109Z,12.10
2023-04-18T18:47:39.993Z,12.00
2023-04-18T18:50:08.828Z,12.00
2023-04-18T18:52:36.844Z,12.00
2023-04-18T18:55:07.195Z,12.00
2023-04-18T18:57:35.203Z,11.90
2023-04-18T19:00:03.260Z,11.90
2023-04-18T19:02:31.530Z,11.80
2023-04-18T19:04:59.841Z,11.70
2023-04-18T19:07:29.888Z,11.70
2023-04-18T19:10:00.415Z,11.60
2023-04-18T19:12:30.062Z,11.50
2023-04-18T19:14:58.068Z,11.50
2023-04-18T19:17:26.227Z,11.50
2023-04-18T19:19:57.812Z,11.60
2023-04-18T19:22:25.939Z,11.60
2023-04-18T19:24:54.000Z,11.60
2023-04-18T19:27:22.039Z,11.60
2023-04-18T19:29:51.550Z,11.50
2023-04-18T19:32:19.512Z,11.50
2023-04-18T19:34:47.468Z,11.40
2023-04-18T19:37:15.398Z,11.40
2023-04-18T19:39:43.384Z,11.40
2023-04-18T19:42:11.366Z,11.40
2023-04-18T19:44:39.311Z,11.30
2023-04-18T19:47:08.651Z,11.20
2023-04-18T19:49:36.712Z,11.10
2023-04-18T19:52:04.781Z,11.20
2023-04-18T19:54:33.995Z,11.10
2023-04-18T19:57:02.472Z,11.10
2023-04-18T19:59:30.436Z,11.00
2023-04-18T20:02:01.463Z,11.10
2023-04-18T20:04:34.256Z,11.10
2023-04-18T20:07:02.524Z,11.10
2023-04-18T20:09:30.580Z,11.20
2023-04-18T20:12:00.390Z,11.10
2023-04-18T20:14:28.673Z,11.10
2023-04-18T20:16:56.828Z,11.10
2023-04-18T20:19:25.583Z,11.20
2023-04-18T20:21:54.949Z,11.10
2023-04-18T20:24:23.791Z,11.00
2023-04-18T20:26:52.311Z,11.10
2023-04-18T20:29:20.363Z,11.10
2023-04-18T20:31:48.302Z,11.10
2023-04-18T20:34:16.263Z,11.10
2023-04-18T20:36:44.173Z,11.10
2023-04-18T20:39:13.894Z,11.10
2023-04-18T20:41:46.466Z,11.10
2023-04-18T20:44:15.147Z,11.10
2023-04-18T20:46:43.806Z,11.10
2023-04-18T20:49:12.149Z,11.10
2023-04-18T20:51:40.156Z,11.00
2023-04-18T20:54:08.237Z,10.90
2023-04-18T20:56:38.838Z,10.80
2023-04-18T20:59:06.808Z,10.80
2023-04-18T21:01:36.942Z,10.80
2023-04-18T21:04:05.348Z,10.80
2023-04-18T21:06:33.382Z,10.70
2023-04-18T21:09:01.314Z,10.70
2023-04-18T21:11:29.289Z,10.60
2023-04-18T21:13:58.580Z,10.60
2023-04-18T21:16:26.844Z,10.60
2023-04-18T21:18:55.166Z,10.60
2023-04-18T21:21:23.134Z,10.60
2023-04-18T21:23:51.118Z,10.60
2023-04-18T21:26:19.096Z,10.70
2023-04-18T21:28:54.504Z,10.80
2023-04-18T21:31:24.149Z,10.80
2023-04-18T21:33:55.760Z,10.80
2023-04-18T21:36:24.926Z,10.90
2023-04-18T21:38:53.410Z,10.90
2023-04-18T21:41:22.080Z,10.90
2023-04-18T21:43:50.589Z,10.90
2023-04-18T21:46:19.047Z,10.90
2023-04-18T21:48:49.277Z,10.90
2023-04-18T21:51:18.059Z,10.90
2023-04-18T21:53:46.172Z,10.90
2023-04-18T21:56:14.319Z,11.00
2023-04-18T21:58:42.325Z,11.00
2023-04-18T22:01:10.427Z,10.90
2023-04-18T22:03:38.863Z,10.90
2023-04-18T22:06:08.455Z,10.90
2023-04-18T22:08:39.381Z,11.00
2023-04-18T22:11:09.103Z,11.00
2023-04-18T22:13:37.054Z,11.10
2023-04-18T22:16:05.454Z,11.10
2023-04-18T22:18:34.471Z,11.10
2023-04-18T22:21:03.312Z,11.00
2023-04-18T22:23:32.812Z,11.00
2023-04-18T22:26:00.773Z,11.10
2023-04-18T22:28:28.869Z,11.10
2023-04-18T22:30:56.920Z,11.10
2023-04-18T22:33:25.082Z,11.10
2023-04-18T22:35:53.194Z,11.10
2023-04-18T22:38:21.194Z,11.00
2023-04-18T22:40:50.591Z,11.00
2023-04-18T22:43:22.492Z,11.00
2023-04-18T22:45:50.882Z,11.00
2023-04-18T22:48:18.931Z,11.00
2023-04-18T22:50:47.325Z,11.10
2023-04-18T22:53:15.341Z,11.10
2023-04-18T22:55:44.228Z,11.10
2023-04-18T22:58:14.209Z,11.10
2023-04-18T23:00:42.185Z,11.00
2023-04-18T23:03:10.349Z,11.00
2023-04-18T23:05:38.445Z,11.00
2023-04-18T23:08:07.110Z,11.00
2023-04-18T23:10:35.308Z,11.00
2023-04-18T23:13:03.277Z,11.00
2023-04-18T23:15:32.635Z,11.00
2023-04-18T23:18:00.780Z,10.90
2023-04-18T23:20:28.977Z,10.90
2023-04-18T23:22:56.940Z,11.00
2023-04-18T23:25:24.895Z,11.00
2023-04-18T23:27:52.857Z,11.00
2023-04-18T23:30:20.824Z,11.00
2023-04-18T23:32:50.166Z,11.00
2023-04-18T23:35:18.413Z,11.00
2023-04-18T23:37:46.387Z,11.10
2023-04-18T23:40:14.461Z,11.00
2023-04-18T23:42:42.495Z,11.10
2023-04-18T23:45:11.065Z,11.00
2023-04-18T23:47:39.101Z,11.10
2023-04-18T23:50:09.791Z,11.10
2023-04-18T23:52:38.501Z,11.00
2023-04-18T23:55:07.351Z,11.10
2023-04-18T23:57:35.563Z,11.00
